createdAt,value
2018-08-28T00:03:05.950Z,11.38
2018-08-28T00:07:58.882Z,11.75
2018-08-28T00:12:52.114Z,11.88
2018-08-28T00:17:46.054Z,11.08
2018-08-28T00:22:39.142Z,11.55
2018-08-28T00:27:32.243Z,10.38
2018-08-28T00:32:25.218Z,10.15
2018-08-28T00:37:18.310Z,9.83
2018-08-28T00:42:11.387Z,10.98
2018-08-28T00:47:04.473Z,9.78
2018-08-28T00:51:57.422Z,10.43
2018-08-28T00:56:51.170Z,10.05
2018-08-28T01:01:44.252Z,10.03
2018-08-28T01:06:37.459Z,10.40
2018-08-28T01:11:30.543Z,9.45
2018-08-28T01:16:23.583Z,9.03
2018-08-28T01:21:16.490Z,7.78
2018-08-28T01:26:09.658Z,9.25
2018-08-28T01:31:02.748Z,9.68
2018-08-28T01:35:56.095Z,9.50
2018-08-28T01:40:49.185Z,9.30
2018-08-28T01:45:42.383Z,9.20
2018-08-28T01:50:35.462Z,7.58
2018-08-28T01:55:28.494Z,9.03
2018-08-28T02:00:21.748Z,8.33
2018-08-28T02:05:14.739Z,8.10
2018-08-28T02:10:07.914Z,8.53
2018-08-28T02:15:00.912Z,7.78
2018-08-28T02:19:53.833Z,7.95
2018-08-28T02:24:46.755Z,8.20
2018-08-28T02:29:39.857Z,7.62
2018-08-28T02:34:32.883Z,8.08
2018-08-28T02:39:25.818Z,7.45
2018-08-28T02:44:18.751Z,5.90
2018-08-28T02:49:11.855Z,6.22
2018-08-28T02:54:04.842Z,7.42
2018-08-28T02:58:57.899Z,7.33
2018-08-28T03:03:51.141Z,6.12
2018-08-28T03:08:44.162Z,7.03
2018-08-28T03:13:37.167Z,6.72
2018-08-28T03:18:30.157Z,7.05
2018-08-28T03:23:23.109Z,6.92
2018-08-28T03:28:17.016Z,6.45
2018-08-28T03:33:10.090Z,5.83
2018-08-28T03:38:03.220Z,6.60
2018-08-28T03:42:56.148Z,5.72
2018-08-28T03:47:49.110Z,6.20
2018-08-28T03:52:42.158Z,6.10
2018-08-28T03:57:35.170Z,5.83
2018-08-28T04:02:28.141Z,5.90
2018-08-28T04:07:21.229Z,6.00
2018-08-28T04:12:14.179Z,6.37
2018-08-28T04:17:07.217Z,5.70
2018-08-28T04:22:00.287Z,5.30
2018-08-28T04:26:53.348Z,5.58
2018-08-28T04:31:46.506Z,5.95
2018-08-28T04:36:39.510Z,5.87
2018-08-28T04:41:32.585Z,6.00
2018-08-28T04:46:25.560Z,6.05
2018-08-28T04:51:18.569Z,5.78
2018-08-28T04:56:11.584Z,5.62
2018-08-28T05:01:04.609Z,4.87
2018-08-28T05:05:57.847Z,5.47
2018-08-28T05:10:50.916Z,5.03
2018-08-28T05:15:43.966Z,5.53
2018-08-28T05:20:37.004Z,5.67
2018-08-28T05:25:31.246Z,6.03
2018-08-28T05:30:24.472Z,4.67
2018-08-28T05:35:17.727Z,5.10
2018-08-28T05:40:10.791Z,3.72
2018-08-28T05:45:04.034Z,5.85
2018-08-28T05:49:57.216Z,6.22
2018-08-28T05:54:50.361Z,4.90
2018-08-28T05:59:43.345Z,6.15
2018-08-28T06:04:36.608Z,6.53
2018-08-28T06:09:29.714Z,7.15
2018-08-28T06:14:22.902Z,5.33
2018-08-28T06:19:15.998Z,5.75
2018-08-28T06:24:08.974Z,5.05
2018-08-28T06:29:01.907Z,4.83
2018-08-28T06:33:54.976Z,5.30
2018-08-28T06:38:47.953Z,5.42
2018-08-28T06:43:41.030Z,5.55
2018-08-28T06:48:34.949Z,4.97
2018-08-28T06:53:28.015Z,5.78
2018-08-28T06:58:21.066Z,5.78
2018-08-28T07:03:14.111Z,5.40
2018-08-28T07:08:07.527Z,5.30
2018-08-28T07:13:00.591Z,5.60
2018-08-28T07:17:53.574Z,5.35
2018-08-28T07:22:46.694Z,5.87
2018-08-28T07:27:39.814Z,5.75
2018-08-28T07:32:32.958Z,5.15
2018-08-28T07:37:26.054Z,5.78
2018-08-28T07:42:19.026Z,5.75
2018-08-28T07:47:12.044Z,5.92
2018-08-28T07:52:05.307Z,4.90
2018-08-28T07:56:58.348Z,6.00
2018-08-28T08:01:51.563Z,5.53
2018-08-28T08:06:44.809Z,5.85
2018-08-28T08:11:37.775Z,5.08
2018-08-28T08:16:30.989Z,6.62
2018-08-28T08:21:24.999Z,4.45
2018-08-28T08:26:18.619Z,4.70
2018-08-28T08:31:12.117Z,6.17
2018-08-28T08:36:05.244Z,5.67
2018-08-28T08:40:58.404Z,5.80
2018-08-28T08:45:51.565Z,5.70
2018-08-28T08:50:44.943Z,5.28
2018-08-28T08:55:37.985Z,6.12
2018-08-28T09:00:30.987Z,4.67
2018-08-28T09:05:24.140Z,5.42
2018-08-28T09:10:17.732Z,5.65
2018-08-28T09:15:11.404Z,4.10
2018-08-28T09:20:04.707Z,4.62
2018-08-28T09:24:58.113Z,5.65
2018-08-28T09:29:51.124Z,4.97
2018-08-28T09:34:44.066Z,5.58
2018-08-28T09:39:37.203Z,4.83
2018-08-28T09:44:30.251Z,5.08
2018-08-28T09:49:23.538Z,5.17
2018-08-28T09:54:16.518Z,4.67
2018-08-28T09:59:09.534Z,3.65
2018-08-28T10:04:02.564Z,4.92
2018-08-28T10:08:57.712Z,4.00
2018-08-28T10:13:50.677Z,4.60
2018-08-28T10:18:43.716Z,4.00
2018-08-28T10:23:36.858Z,4.30
2018-08-28T10:28:30.027Z,4.80
2018-08-28T10:33:23.064Z,4.97
2018-08-28T10:38:16.537Z,5.05
2018-08-28T10:43:09.689Z,5.15
2018-08-28T10:48:02.819Z,5.50
2018-08-28T10:52:56.238Z,5.25
2018-08-28T10:57:49.691Z,5.87
2018-08-28T11:02:43.249Z,5.62
2018-08-28T11:07:36.504Z,5.53
2018-08-28T11:12:29.538Z,5.25
2018-08-28T11:17:26.917Z,5.90
2018-08-28T11:22:20.126Z,5.75
2018-08-28T11:27:13.238Z,5.50
2018-08-28T11:32:06.288Z,6.75
2018-08-28T11:36:59.683Z,5.53
2018-08-28T11:41:52.806Z,6.97
2018-08-28T11:46:45.891Z,6.75
2018-08-28T11:51:38.863Z,8.63
2018-08-28T11:56:31.942Z,6.00
2018-08-28T12:01:25.013Z,5.08
2018-08-28T12:06:18.239Z,6.95
2018-08-28T12:11:11.346Z,6.80
2018-08-28T12:16:04.487Z,5.97
2018-08-28T12:20:58.244Z,6.62
2018-08-28T12:25:51.609Z,6.60
2018-08-28T12:30:45.261Z,6.60
2018-08-28T12:35:38.394Z,6.62
2018-08-28T12:40:31.839Z,7.80
2018-08-28T12:45:24.820Z,8.35
2018-08-28T12:50:17.941Z,7.90
2018-08-28T12:55:11.449Z,6.97
2018-08-28T13:00:05.080Z,7.55
2018-08-28T13:04:58.373Z,7.22
2018-08-28T13:09:51.509Z,7.90
2018-08-28T13:14:44.553Z,7.50
2018-08-28T13:19:38.083Z,6.85
2018-08-28T13:24:31.263Z,8.63
2018-08-28T13:29:24.305Z,7.15
2018-08-28T13:34:17.438Z,7.87
2018-08-28T13:39:10.487Z,7.28
2018-08-28T13:44:10.354Z,7.03
2018-08-28T13:49:03.713Z,8.28
2018-08-28T13:53:57.701Z,7.67
2018-08-28T13:58:50.829Z,7.15
2018-08-28T14:03:53.278Z,7.45
2018-08-28T14:08:48.464Z,8.25
2018-08-28T14:13:41.788Z,8.00
2018-08-28T14:18:34.938Z,8.23
2018-08-28T14:23:29.420Z,8.03
2018-08-28T14:28:22.399Z,9.30
2018-08-28T14:33:15.520Z,8.70
2018-08-28T14:38:09.579Z,7.75
2018-08-28T14:43:02.601Z,8.10
2018-08-28T14:47:56.300Z,9.03
2018-08-28T14:52:49.414Z,8.90
2018-08-28T14:57:42.641Z,9.00
2018-08-28T15:02:35.744Z,9.38
2018-08-28T15:07:28.824Z,9.80
2018-08-28T15:12:21.893Z,9.45
2018-08-28T15:17:15.654Z,9.18
2018-08-28T15:22:08.756Z,8.58
2018-08-28T15:27:01.993Z,9.18
2018-08-28T15:31:55.053Z,9.40
2018-08-28T15:36:48.196Z,9.38
2018-08-28T15:41:41.249Z,9.70
2018-08-28T15:46:34.473Z,9.20
2018-08-28T15:51:27.817Z,9.25
2018-08-28T15:56:20.799Z,8.33
2018-08-28T16:01:13.896Z,8.70
2018-08-28T16:06:06.995Z,8.70
2018-08-28T16:11:00.057Z,8.75
2018-08-28T16:15:53.347Z,8.55
2018-08-28T16:20:46.555Z,9.25
2018-08-28T16:25:39.797Z,8.50
2018-08-28T16:30:32.843Z,10.15
2018-08-28T16:35:25.926Z,8.20
2018-08-28T16:40:19.106Z,9.70
2018-08-28T16:45:12.372Z,10.85
2018-08-28T16:50:05.771Z,11.00
2018-08-28T16:54:58.979Z,10.82
2018-08-28T16:59:52.192Z,10.75
2018-08-28T17:04:45.351Z,10.13
2018-08-28T17:09:38.352Z,11.10
2018-08-28T17:14:31.583Z,11.68
2018-08-28T17:19:24.628Z,11.78
2018-08-28T17:24:17.884Z,11.10
2018-08-28T17:29:10.990Z,11.70
2018-08-28T17:34:03.999Z,11.53
2018-08-28T17:38:57.461Z,10.32
2018-08-28T17:43:50.923Z,11.22
2018-08-28T17:48:44.632Z,10.82
2018-08-28T17:53:37.801Z,8.98
2018-08-28T17:58:33.016Z,11.18
2018-08-28T18:03:26.115Z,11.18
2018-08-28T18:08:19.204Z,12.47
2018-08-28T18:13:12.311Z,11.28
2018-08-28T18:18:05.336Z,10.82
2018-08-28T18:22:58.518Z,12.07
2018-08-28T18:27:51.616Z,10.10
2018-08-28T18:32:44.675Z,9.05
2018-08-28T18:37:37.866Z,10.78
2018-08-28T18:42:30.935Z,10.50
2018-08-28T18:47:25.201Z,7.50
2018-08-28T18:52:18.313Z,10.18
2018-08-28T18:57:11.361Z,10.75
2018-08-28T19:02:04.555Z,9.78
2018-08-28T19:06:57.666Z,10.25
2018-08-28T19:11:50.686Z,10.85
2018-08-28T19:16:43.858Z,11.83
2018-08-28T19:21:36.951Z,9.40
2018-08-28T19:26:30.104Z,10.63
2018-08-28T19:31:23.194Z,11.50
2018-08-28T19:36:16.586Z,10.32
2018-08-28T19:41:09.605Z,11.48
2018-08-28T19:46:02.795Z,10.72
2018-08-28T19:50:55.815Z,10.98
2018-08-28T19:55:48.795Z,11.40
2018-08-28T20:00:41.844Z,10.43
2018-08-28T20:05:34.912Z,10.15
2018-08-28T20:10:28.036Z,9.60
2018-08-28T20:15:22.809Z,8.85
2018-08-28T20:20:15.867Z,10.10
2018-08-28T20:25:09.002Z,8.88
2018-08-28T20:30:02.228Z,8.23
2018-08-28T20:34:55.565Z,8.60
2018-08-28T20:39:48.676Z,8.83
2018-08-28T20:44:41.754Z,7.58
2018-08-28T20:49:34.971Z,8.95
2018-08-28T20:54:28.066Z,10.58
2018-08-28T20:59:21.141Z,9.20
2018-08-28T21:04:14.190Z,9.68
2018-08-28T21:09:07.819Z,10.43
2018-08-28T21:14:00.954Z,10.23
2018-08-28T21:18:54.143Z,9.83
2018-08-28T21:23:47.243Z,9.40
2018-08-28T21:28:40.441Z,8.65
2018-08-28T21:33:33.553Z,9.85
2018-08-28T21:38:26.697Z,9.10
2018-08-28T21:43:19.772Z,9.68
2018-08-28T21:48:12.941Z,9.63
2018-08-28T21:53:06.135Z,7.60
2018-08-28T21:57:59.305Z,8.83
2018-08-28T22:02:52.321Z,8.65
2018-08-28T22:07:45.297Z,8.55
2018-08-28T22:12:38.385Z,8.55
2018-08-28T22:17:31.622Z,6.35
2018-08-28T22:22:24.725Z,7.25
2018-08-28T22:27:17.835Z,7.60
2018-08-28T22:32:10.944Z,9.18
2018-08-28T22:37:04.123Z,9.63
2018-08-28T22:41:57.262Z,10.30
2018-08-28T22:46:50.287Z,9.68
2018-08-28T22:51:43.367Z,9.63
2018-08-28T22:56:36.432Z,8.78
2018-08-28T23:01:29.472Z,8.78
2018-08-28T23:06:22.781Z,9.28
2018-08-28T23:11:15.857Z,8.93
2018-08-28T23:16:10.838Z,8.75
2018-08-28T23:21:03.954Z,8.25
2018-08-28T23:25:56.943Z,8.88
2018-08-28T23:30:50.192Z,8.95
2018-08-28T23:35:43.299Z,8.38
2018-08-28T23:40:36.282Z,8.98
2018-08-28T23:45:29.252Z,8.45
2018-08-28T23:50:22.308Z,9.63
2018-08-28T23:55:15.289Z,9.58
